Time,TemperatureF,DewpointF,PressureIn,WindDirection,WindDirectionDegrees,WindSpeedMPH,WindSpeedGustMPH,Humidity,HourlyPrecipIn,Conditions,Clouds,dailyrainin,SolarRadiationWatts/m^2,SoftwareType,DateUTC
2013-05-06 00:00:00,53.5,38.7,30.03,ESE,112,0.0,2.0,57,0.00,,---,0.00,0.00,VWS V14.00,2013-05-06 04:00:00,
2013-05-06 00:30:00,51.4,38.8,30.03,ESE,112,0.0,1.0,62,0.00,,---,0.00,0.00,VWS V14.00,2013-05-06 04:30:00,
2013-05-06 01:00:00,49.4,38.5,30.04,ESE,112,0.0,0.0,66,0.00,,---,0.00,0.00,VWS V14.00,2013-05-06 05:00:00,
2013-05-06 01:30:00,48.4,39.1,30.03,ESE,112,0.0,2.0,70,0.00,,---,0.00,0.00,VWS V14.00,2013-05-06 05:30:00,
2013-05-06 02:00:00,48.8,38.7,30.02,ESE,112,0.0,4.0,68,0.00,,---,0.00,0.00,VWS V14.00,2013-05-06 06:00:00,
2013-05-06 02:30:00,47.8,38.1,30.01,ESE,112,0.0,1.0,69,0.00,,---,0.00,0.00,VWS V14.00,2013-05-06 06:30:00,
2013-05-06 03:00:00,46.7,38.5,30.01,East,90,0.0,4.0,73,0.00,,---,0.00,0.00,VWS V14.00,2013-05-06 07:00:00,
2013-05-06 03:30:00,47.6,39.4,30.00,North,0,0.0,4.0,73,0.00,,---,0.00,0.00,VWS V14.00,2013-05-06 07:30:00,
2013-05-06 04:00:00,46.7,39.2,30.00,NNE,22,0.0,3.0,75,0.00,,---,0.00,0.00,VWS V14.00,2013-05-06 08:00:00,
2013-05-06 04:30:00,44.0,38.5,30.01,NNE,22,0.0,0.0,81,0.00,,---,0.00,0.00,VWS V14.00,2013-05-06 08:30:00,
2013-05-06 05:00:00,42.4,37.9,30.02,NNE,22,0.0,3.0,84,0.00,,---,0.00,0.00,VWS V14.00,2013-05-06 09:00:00,
2013-05-06 05:30:00,44.0,39.2,30.02,NNE,22,0.0,3.0,83,0.00,,---,0.00,0.00,VWS V14.00,2013-05-06 09:30:00,
2013-05-06 06:00:00,44.5,40.0,30.02,NNE,22,0.0,3.0,84,0.00,,---,0.00,0.00,VWS V14.00,2013-05-06 10:00:00,
2013-05-06 06:30:00,44.1,39.9,30.02,NNE,22,0.0,0.0,85,0.00,,---,0.00,9.00,VWS V14.00,2013-05-06 10:30:00,
2013-05-06 07:00:00,44.5,40.6,30.03,NNE,22,0.0,1.0,86,0.00,,---,0.00,35.00,VWS V14.00,2013-05-06 11:00:00,
2013-05-06 07:30:00,47.6,42.7,30.04,ENE,68,0.0,2.0,83,0.00,,---,0.00,71.00,VWS V14.00,2013-05-06 11:30:00,
2013-05-06 08:00:00,50.9,43.6,30.04,SE,135,0.0,5.0,76,0.00,,---,0.00,95.00,VWS V14.00,2013-05-06 12:00:00,
2013-05-06 08:30:00,53.8,45.0,30.03,East,90,1.0,5.0,72,0.00,,---,0.00,231.00,VWS V14.00,2013-05-06 12:30:00,
2013-05-06 09:00:00,56.5,46.8,30.03,ESE,112,2.0,9.0,70,0.00,,---,0.00,446.00,VWS V14.00,2013-05-06 13:00:00,
2013-05-06 09:30:00,57.3,47.6,30.03,ESE,112,3.0,9.0,70,0.00,,---,0.00,479.00,VWS V14.00,2013-05-06 13:30:00,
2013-05-06 10:00:00,58.4,48.3,30.02,NE,45,2.0,8.0,69,0.00,,---,0.00,384.00,VWS V14.00,2013-05-06 14:00:00,
2013-05-06 10:30:00,61.9,50.8,30.02,East,90,2.0,9.0,67,0.00,,---,0.00,591.00,VWS V14.00,2013-05-06 14:30:00,
2013-05-06 11:00:00,63.6,52.5,30.03,East,90,5.0,16.0,67,0.00,,---,0.00,698.00,VWS V14.00,2013-05-06 15:00:00,
2013-05-06 11:30:00,63.6,52.0,30.03,ESE,112,5.0,15.0,66,0.00,,---,0.00,493.00,VWS V14.00,2013-05-06 15:30:00,
2013-05-06 12:00:00,66.6,54.5,30.02,ESE,112,4.0,18.0,65,0.00,,---,0.00,820.00,VWS V14.00,2013-05-06 16:00:00,
2013-05-06 12:30:00,65.7,53.2,30.01,ESE,112,7.0,19.0,64,0.00,,---,0.00,921.00,VWS V14.00,2013-05-06 16:30:00,
2013-05-06 13:00:00,67.4,55.7,30.00,ESE,112,6.0,20.0,66,0.00,,---,0.00,683.00,VWS V14.00,2013-05-06 17:00:00,
2013-05-06 13:30:00,68.5,53.6,29.99,ESE,112,6.0,18.0,59,0.00,,---,0.00,964.00,VWS V14.00,2013-05-06 17:30:00,
2013-05-06 14:00:00,69.0,54.1,29.99,East,90,6.0,15.0,59,0.00,,---,0.00,709.00,VWS V14.00,2013-05-06 18:00:00,
2013-05-06 14:30:00,68.2,53.8,29.98,ESE,112,5.0,16.0,60,0.00,,---,0.00,512.00,VWS V14.00,2013-05-06 18:30:00,
2013-05-06 15:00:00,68.5,53.6,29.98,East,90,5.0,18.0,59,0.00,,---,0.00,352.00,VWS V14.00,2013-05-06 19:00:00,
2013-05-06 15:30:00,68.5,52.7,29.97,ESE,112,6.0,18.0,57,0.00,,---,0.00,638.00,VWS V14.00,2013-05-06 19:30:00,
2013-05-06 16:00:00,68.8,53.0,29.95,ESE,112,7.0,15.0,57,0.00,,---,0.00,564.00,VWS V14.00,2013-05-06 20:00:00,
2013-05-06 16:30:00,69.4,53.5,29.95,East,90,7.0,15.0,57,0.00,,---,0.00,694.00,VWS V14.00,2013-05-06 20:30:00,
2013-05-06 17:00:00,68.6,53.7,29.95,East,90,7.0,18.0,59,0.00,,---,0.00,530.00,VWS V14.00,2013-05-06 21:00:00,
2013-05-06 17:30:00,69.0,54.5,29.96,East,90,6.0,20.0,60,0.00,,---,0.00,579.00,VWS V14.00,2013-05-06 21:30:00,
2013-05-06 18:00:00,67.2,53.8,29.96,ESE,112,6.0,16.0,62,0.00,,---,0.00,390.00,VWS V14.00,2013-05-06 22:00:00,
2013-05-06 18:30:00,65.4,53.3,29.96,ESE,112,5.0,15.0,65,0.00,,---,0.00,131.00,VWS V14.00,2013-05-06 22:30:00,
2013-05-06 19:00:00,65.0,53.8,29.97,ESE,112,4.0,11.0,67,0.00,,---,0.00,137.00,VWS V14.00,2013-05-06 23:00:00,
2013-05-06 19:30:00,64.1,53.3,29.97,ESE,112,5.0,14.0,68,0.00,,---,0.00,83.00,VWS V14.00,2013-05-06 23:30:00,
2013-05-06 20:00:00,62.9,53.0,29.99,ESE,112,5.0,17.0,70,0.00,,---,0.00,24.00,VWS V14.00,2013-05-07 00:00:00,
2013-05-06 20:30:00,62.0,53.3,29.98,ESE,112,4.0,9.0,73,0.00,,---,0.00,4.00,VWS V14.00,2013-05-07 00:30:00,
2013-05-06 20:37:00,62.0,53.3,29.98,ESE,112,4.0,9.0,73,0.00,,---,0.00,4.00,VWS V14.00,2013-05-07 00:37:00,
2013-05-06 20:42:00,61.9,53.2,29.99,ESE,115,2.0,2.0,73,0.00,,---,0.00,0.00,VWS V14.00,2013-05-07 00:42:00,
2013-05-06 20:47:00,61.8,53.4,29.99,ESE,115,0.0,2.0,74,0.00,,---,0.00,0.00,VWS V14.00,2013-05-07 00:47:00,
2013-05-06 20:51:00,61.7,53.3,29.99,ESE,115,0.0,2.0,74,0.00,,---,0.00,0.00,VWS V14.00,2013-05-07 00:51:00,
2013-05-06 20:56:00,61.6,53.6,29.99,East,80,0.0,3.0,75,0.00,,---,0.00,0.00,VWS V14.00,2013-05-07 00:56:00,
2013-05-06 21:00:00,61.5,53.9,29.99,East,101,2.0,6.0,76,0.00,,---,0.00,0.00,VWS V14.00,2013-05-07 01:00:00,
2013-05-06 21:01:00,61.5,53.9,29.99,North,355,5.0,5.0,76,0.00,,---,0.00,0.00,VWS V14.00,2013-05-07 01:01:00,
2013-05-06 21:06:00,61.4,54.1,30.00,East,91,0.0,6.0,77,0.00,,---,0.00,0.00,VWS V14.00,2013-05-07 01:06:00,
2013-05-06 21:11:00,61.3,54.4,30.00,East,96,1.0,6.0,78,0.00,,---,0.00,0.00,VWS V14.00,2013-05-07 01:11:00,
2013-05-06 21:16:00,61.1,54.5,30.00,ESE,119,2.0,6.0,79,0.00,,---,0.00,0.00,VWS V14.00,2013-05-07 01:16:00,
2013-05-06 21:21:00,60.7,54.8,30.00,SE,124,0.0,6.0,81,0.00,,---,0.00,0.00,VWS V14.00,2013-05-07 01:21:00,
2013-05-06 21:27:00,60.4,54.9,30.00,NE,53,0.0,6.0,82,0.00,,---,0.00,0.00,VWS V14.00,2013-05-07 01:27:00,
2013-05-06 21:30:00,60.0,54.8,30.00,East,89,2.0,6.0,83,0.00,,---,0.00,0.00,VWS V14.00,2013-05-07 01:30:00,
2013-05-06 21:31:00,60.0,54.8,30.00,East,89,0.0,2.0,83,0.00,,---,0.01,0.00,VWS V14.00,2013-05-07 01:31:00,
2013-05-06 21:36:00,59.6,55.1,30.00,East,88,0.0,3.0,85,0.00,,---,0.01,0.00,VWS V14.00,2013-05-07 01:36:00,
2013-05-06 21:41:00,59.2,55.0,30.00,East,88,0.0,3.0,86,0.00,,---,0.01,0.00,VWS V14.00,2013-05-07 01:41:00,
2013-05-06 21:46:00,59.0,54.8,30.01,East,88,0.0,3.0,86,0.00,,---,0.01,0.00,VWS V14.00,2013-05-07 01:46:00,
2013-05-06 21:51:00,58.7,54.8,30.01,East,88,0.0,3.0,87,0.00,,---,0.01,0.00,VWS V14.00,2013-05-07 01:51:00,
2013-05-06 21:56:00,58.6,55.1,30.01,East,88,0.0,3.0,88,0.00,,---,0.01,0.00,VWS V14.00,2013-05-07 01:56:00,
2013-05-06 22:00:00,58.5,55.0,30.01,East,88,0.0,3.0,88,0.00,,---,0.01,0.00,VWS V14.00,2013-05-07 02:00:00,
2013-05-06 22:01:00,58.4,54.9,30.01,East,88,0.0,0.0,88,0.00,,---,0.01,0.00,VWS V14.00,2013-05-07 02:01:00,
2013-05-06 22:07:00,58.3,55.1,30.01,NE,43,0.0,6.0,89,0.00,,---,0.02,0.00,VWS V14.00,2013-05-07 02:07:00,
2013-05-06 22:12:00,58.1,54.9,30.01,ENE,78,0.0,6.0,89,0.00,,---,0.02,0.00,VWS V14.00,2013-05-07 02:12:00,
2013-05-06 22:16:00,57.9,55.0,30.01,ENE,73,0.0,6.0,90,0.00,,---,0.02,0.00,VWS V14.00,2013-05-07 02:16:00,
2013-05-06 22:21:00,57.8,54.9,30.01,ENE,65,1.0,6.0,90,0.00,,---,0.02,0.00,VWS V14.00,2013-05-07 02:21:00,
2013-05-06 22:27:00,57.7,54.8,30.01,ENE,65,0.0,6.0,90,0.00,,---,0.02,0.00,VWS V14.00,2013-05-07 02:27:00,
2013-05-06 22:30:00,57.6,55.0,30.00,ENE,65,1.0,6.0,91,0.00,,---,0.02,0.00,VWS V14.00,2013-05-07 02:30:00,
2013-05-06 22:31:00,57.6,55.0,30.00,ENE,65,2.0,3.0,91,0.00,,---,0.02,0.00,VWS V14.00,2013-05-07 02:31:00,
2013-05-06 22:37:00,57.5,54.9,30.00,ENE,59,2.0,4.0,91,0.00,,---,0.02,0.00,VWS V14.00,2013-05-07 02:37:00,
2013-05-06 22:42:00,57.5,54.9,29.99,NNE,31,3.0,6.0,91,0.00,,---,0.02,0.00,VWS V14.00,2013-05-07 02:42:00,
2013-05-06 22:47:00,57.5,54.9,29.99,NNE,17,4.0,6.0,91,0.00,,---,0.02,0.00,VWS V14.00,2013-05-07 02:47:00,
2013-05-06 22:52:00,57.5,54.6,29.99,NNE,24,0.0,6.0,90,0.00,,---,0.02,0.00,VWS V14.00,2013-05-07 02:52:00,
2013-05-06 22:57:00,57.4,54.5,29.99,NE,55,4.0,6.0,90,0.00,,---,0.02,0.00,VWS V14.00,2013-05-07 02:57:00,
2013-05-06 23:00:00,57.5,54.9,29.99,NE,50,0.0,6.0,91,0.00,,---,0.02,0.00,VWS V14.00,2013-05-07 03:00:00,
2013-05-06 23:02:00,57.5,54.9,29.99,NE,50,0.0,1.0,91,0.00,,---,0.02,0.00,VWS V14.00,2013-05-07 03:02:00,
2013-05-06 23:07:00,57.4,54.5,29.99,NE,49,0.0,3.0,90,0.00,,---,0.02,0.00,VWS V14.00,2013-05-07 03:07:00,
2013-05-06 23:12:00,57.4,54.5,29.99,NE,46,0.0,4.0,90,0.00,,---,0.02,0.00,VWS V14.00,2013-05-07 03:12:00,
2013-05-06 23:17:00,57.4,54.2,29.99,NE,46,0.0,4.0,89,0.00,,---,0.02,0.00,VWS V14.00,2013-05-07 03:17:00,
2013-05-06 23:22:00,57.4,54.2,29.98,NE,41,4.0,6.0,89,0.00,,---,0.02,0.00,VWS V14.00,2013-05-07 03:22:00,
2013-05-06 23:27:00,57.5,54.3,29.98,NNE,30,3.0,6.0,89,0.00,,---,0.02,0.00,VWS V14.00,2013-05-07 03:27:00,
2013-05-06 23:30:00,57.7,54.5,29.98,NE,42,4.0,10.0,89,0.00,,---,0.02,0.00,VWS V14.00,2013-05-07 03:30:00,
2013-05-06 23:32:00,57.7,54.2,29.98,NE,42,1.0,4.0,88,0.00,,---,0.02,0.00,VWS V14.00,2013-05-07 03:32:00,
2013-05-06 23:37:00,57.7,54.2,29.98,ENE,57,0.0,6.0,88,0.00,,---,0.02,0.00,VWS V14.00,2013-05-07 03:37:00,
2013-05-06 23:42:00,57.7,54.2,29.98,ENE,57,0.0,6.0,88,0.00,,---,0.02,0.00,VWS V14.00,2013-05-07 03:42:00,
2013-05-06 23:47:00,57.6,54.1,29.98,ENE,57,0.0,6.0,88,0.00,,---,0.02,0.00,VWS V14.00,2013-05-07 03:47:00,
2013-05-06 23:52:00,57.5,54.3,29.98,ENE,57,0.0,6.0,89,0.00,,---,0.02,0.00,VWS V14.00,2013-05-07 03:52:00,
2013-05-06 23:57:00,57.3,54.1,29.98,ENE,57,0.0,6.0,89,0.00,,---,0.02,0.00,VWS V14.00,2013-05-07 03:57:00,